Time;durP1;ratioP1;P1;durP2;ratioP2;P2;SDS_P1;SDS_P2;PMS_P1;PMS_P2;Temp;Humidity;BMP_temperature;BMP_pressure;BME280_temperature;BME280_humidity;BME280_pressure;Samples;Min_cycle;Max_cycle;Signal;HPM_P1;HPM_P2
2022/04/27 00:00:28;;;;;;;7.82;2.63;;;;;;;19.17;31.44;98706.81;5003113;28;20045;-67
2022/04/27 00:02:56;;;;;;;11.85;3.00;;;;;;;19.16;31.61;98707.03;5036014;28;20041;-67
2022/04/27 00:05:21;;;;;;;5.80;2.70;;;;;;;19.10;31.69;98702.56;5052586;28;20037;-67
2022/04/27 00:07:47;;;;;;;4.32;2.85;;;;;;;19.17;31.56;98705.97;5019175;28;20098;-67
2022/04/27 00:10:13;;;;;;;5.30;2.70;;;;;;;19.17;31.51;98711.38;5035385;28;20044;-67
2022/04/27 00:12:39;;;;;;;8.20;2.50;;;;;;;19.05;31.64;98722.13;5052283;28;20485;-67
2022/04/27 00:15:06;;;;;;;5.55;2.80;;;;;;;19.08;31.99;98721.66;5002947;28;20060;-67
2022/04/27 00:17:31;;;;;;;7.22;2.80;;;;;;;18.97;32.08;98721.66;5035925;28;20052;-66
2022/04/27 00:19:57;;;;;;;5.15;2.75;;;;;;;19.02;32.01;98730.66;5002713;28;20040;-67
2022/04/27 00:22:23;;;;;;;5.25;2.33;;;;;;;18.97;32.12;98730.56;5002843;28;20040;-67
2022/04/27 00:24:49;;;;;;;6.75;2.50;;;;;;;19.01;32.08;98728.22;5019245;28;20044;-66
2022/04/27 00:27:15;;;;;;;4.93;2.65;;;;;;;18.87;32.31;98711.47;5035557;28;20132;-68
2022/04/27 00:29:41;;;;;;;5.97;2.40;;;;;;;18.96;32.26;98728.91;5052361;28;20492;-68
2022/04/27 00:32:07;;;;;;;11.07;2.15;;;;;;;19.00;31.97;98726.56;5003185;28;20045;-74
2022/04/27 00:34:33;;;;;;;5.20;2.60;;;;;;;18.99;32.11;98733.03;5036032;28;20132;-68
2022/04/27 00:36:59;;;;;;;4.65;2.60;;;;;;;18.84;32.60;98722.72;5002556;28;20147;-68
2022/04/27 00:39:25;;;;;;;4.53;2.88;;;;;;;18.86;32.53;98731.38;5002521;28;20048;-69
2022/04/27 00:42:00;;;;;;;4.72;2.85;;;;;;;18.86;32.68;98728.69;5036107;28;20068;-67
2022/04/27 00:44:31;;;;;;;5.65;2.58;;;;;;;19.01;32.76;98737.09;5036798;28;20040;-68
2022/04/27 00:46:57;;;;;;;;;;;;;;;19.09;32.51;98728.69;5052871;28;20043;-67
2022/04/27 00:49:22;;;;;;;8.43;2.10;;;;;;;18.81;32.83;98736.63;5052147;28;20019;-67
2022/04/27 00:51:49;;;;;;;4.85;2.13;;;;;;;18.86;32.95;98738.63;5052437;28;20472;-67
2022/04/27 00:54:15;;;;;;;5.05;1.70;;;;;;;18.70;33.18;98744.69;5034871;28;20775;-68
2022/04/27 00:56:42;;;;;;;4.68;1.95;;;;;;;18.58;33.33;98723.13;5018007;28;20048;-68
2022/04/27 00:59:08;;;;;;;4.43;1.90;;;;;;;18.65;33.08;98744.56;5051666;28;20052;-67
2022/04/27 01:01:34;;;;;;;3.15;1.40;;;;;;;18.63;33.27;98750.16;5021937;28;20145;-68
2022/04/27 01:04:01;;;;;;;3.83;1.42;;;;;;;18.58;33.29;98750.03;5005313;28;20048;-69
2022/04/27 01:06:27;;;;;;;3.17;1.70;;;;;;;18.53;33.36;98743.72;5038220;28;20645;-68
2022/04/27 01:08:53;;;;;;;1.90;1.50;;;;;;;18.42;33.76;98750.69;5005617;28;20040;-67
2022/04/27 01:11:19;;;;;;;4.40;1.73;;;;;;;18.45;33.36;98748.34;5001251;28;20111;-67
2022/04/27 01:13:50;;;;;;;2.33;1.80;;;;;;;18.42;33.48;98748.81;5002917;28;20045;-68
2022/04/27 01:16:23;;;;;;;3.80;1.58;;;;;;;18.45;33.69;98745.66;5001900;28;20088;-66
2022/04/27 01:18:52;;;;;;;2.00;1.40;;;;;;;18.45;33.66;98753.72;5018729;28;20076;-67
2022/04/27 01:21:18;;;;;;;6.38;1.55;;;;;;;18.26;33.79;98754.84;4986539;28;20041;-67
2022/04/27 01:24:00;;;;;;;2.67;1.33;;;;;;;18.14;34.03;98740.50;5004651;28;20041;-67
2022/04/27 01:26:28;;;;;;;1.40;1.02;;;;;;;18.21;33.77;98756.53;5019001;28;20098;-67
2022/04/27 01:28:54;;;;;;;2.80;1.40;;;;;;;18.20;33.85;98755.72;5019083;28;20076;-67
2022/04/27 01:31:20;;;;;;;2.25;1.35;;;;;;;18.16;33.99;98761.78;5035033;28;20424;-67
2022/04/27 01:33:47;;;;;;;2.65;1.50;;;;;;;18.12;34.31;98764.13;5002128;28;20044;-67
2022/04/27 01:36:15;;;;;;;6.35;1.63;;;;;;;18.10;34.33;98760.81;5018613;28;20045;-67
2022/04/27 01:38:43;;;;;;;1.67;1.30;;;;;;;18.14;34.58;98762.00;5018744;28;20049;-71
2022/04/27 01:41:09;;;;;;;4.18;2.15;;;;;;;18.02;34.44;98754.97;5035302;28;20051;-66
2022/04/27 01:43:35;;;;;;;3.70;1.80;;;;;;;18.04;34.60;98759.06;5001862;28;20041;-67
2022/04/27 01:46:02;;;;;;;5.75;1.48;;;;;;;18.05;34.65;98762.56;5002135;28;20271;-67
2022/04/27 01:48:28;;;;;;;5.20;1.48;;;;;;;17.93;34.65;98769.72;5034772;28;20528;-67
2022/04/27 01:50:58;;;;;;;1.58;1.45;;;;;;;17.89;34.79;98734.47;5018124;28;20041;-70
2022/04/27 01:56:11;;;;;;;1.42;1.30;;;;;;;17.87;35.10;98765.25;5004750;28;20040;-67
2022/04/27 01:58:43;;;;;;;2.55;1.50;;;;;;;17.83;35.10;98761.38;5018660;28;20056;-67
2022/04/27 02:01:11;;;;;;;1.88;1.40;;;;;;;17.86;35.19;98766.31;5002490;28;20041;-68
2022/04/27 02:03:39;;;;;;;1.45;1.02;;;;;;;17.77;35.33;98764.97;5018687;28;20056;-67
2022/04/27 02:06:09;;;;;;;5.55;1.40;;;;;;;17.68;35.52;98763.66;5034845;28;20056;-67
2022/04/27 02:08:35;;;;;;;3.60;1.50;;;;;;;17.78;35.42;98783.56;5001302;28;20122;-66
2022/04/27 02:11:01;;;;;;;2.55;1.40;;;;;;;17.79;35.09;98771.75;5000977;28;20501;-68
2022/04/27 02:13:27;;;;;;;8.80;1.48;;;;;;;17.73;35.61;98783.41;5017746;28;20131;-67
2022/04/27 02:15:57;;;;;;;1.80;1.43;;;;;;;17.70;35.62;98780.34;5018116;28;20094;-72
2022/04/27 02:18:31;;;;;;;1.38;1.25;;;;;;;17.72;35.69;98780.94;5002623;28;20064;-68
2022/04/27 02:20:56;;;;;;;3.65;1.40;;;;;;;17.71;35.62;98787.38;5033978;28;20095;-69
2022/04/27 02:23:23;;;;;;;3.40;1.30;;;;;;;17.73;35.55;98782.56;5001180;28;20055;-67
2022/04/27 02:25:49;;;;;;;3.78;1.30;;;;;;;17.72;35.55;98789.00;5034125;28;20059;-67
2022/04/27 02:28:15;;;;;;;1.63;1.20;;;;;;;17.64;35.59;98789.28;5001549;28;20040;-67
2022/04/27 02:30:41;;;;;;;2.60;1.08;;;;;;;17.60;35.87;98788.09;5001571;28;20079;-67
2022/04/27 02:33:07;;;;;;;1.45;1.10;;;;;;;17.57;35.90;98786.69;5001492;28;20045;-67
2022/04/27 02:35:33;;;;;;;1.27;1.10;;;;;;;17.60;35.85;98793.47;5001001;28;20586;-67
2022/04/27 02:38:00;;;;;;;3.35;1.00;;;;;;;17.64;35.86;98794.66;5033401;28;20041;-67
2022/04/27 02:40:28;;;;;;;4.57;1.20;;;;;;;17.64;35.61;98795.50;5001147;28;20044;-67
2022/04/27 02:42:57;;;;;;;1.85;1.27;;;;;;;17.59;35.96;98791.84;5002011;28;20098;-67
2022/04/27 02:45:23;;;;;;;4.30;1.27;;;;;;;17.43;35.86;98776.28;5050526;28;20098;-67
2022/04/27 02:47:49;;;;;;;2.35;1.40;;;;;;;17.55;36.12;98802.19;5000735;28;20037;-67
2022/04/27 02:53:13;;;;;;;1.42;1.10;;;;;;;17.43;36.08;98787.00;5011766;28;20052;-67
2022/04/27 02:55:39;;;;;;;2.65;1.10;;;;;;;17.55;36.13;98799.50;5001268;28;20048;-67
2022/04/27 02:58:05;;;;;;;1.63;1.23;;;;;;;17.55;36.20;98804.06;5000451;28;20454;-67
2022/04/27 03:00:34;;;;;;;2.03;1.30;;;;;;;17.57;36.09;98808.19;5017025;28;20131;-67
2022/04/27 03:03:08;;;;;;;1.35;1.20;;;;;;;17.56;36.17;98811.09;5018263;28;20106;-68
2022/04/27 03:05:35;;;;;;;4.00;1.20;;;;;;;17.43;36.37;98809.31;5017701;28;20048;-67
2022/04/27 03:08:01;;;;;;;2.28;1.20;;;;;;;17.43;36.41;98805.81;5016866;28;20037;-67
2022/04/27 03:10:29;;;;;;;2.10;1.30;;;;;;;17.40;36.37;98800.88;5017383;28;20496;-67
2022/04/27 03:12:55;;;;;;;2.30;1.58;;;;;;;17.41;36.39;98802.50;5000287;28;20051;-67
2022/04/27 03:15:22;;;;;;;4.40;1.50;;;;;;;17.45;36.59;98803.75;5016638;28;20069;-68
2022/04/27 03:18:16;;;;;;;6.05;1.77;;;;;;;17.50;36.51;98806.56;5016603;28;20076;-68
2022/04/27 03:20:33;;;;;;;4.43;1.50;;;;;;;17.49;36.71;98810.31;5016391;28;20512;-67
2022/04/27 03:23:00;;;;;;;5.80;1.70;;;;;;;17.47;36.94;98813.22;4999871;28;20140;-68
2022/04/27 03:25:26;;;;;;;3.08;1.70;;;;;;;17.53;36.88;98809.66;5016720;28;20041;-66
2022/04/27 03:27:52;;;;;;;3.15;1.58;;;;;;;17.53;36.83;98820.38;5000238;28;20055;-66
2022/04/27 03:30:19;;;;;;;1.60;1.50;;;;;;;17.51;37.20;98829.72;5016413;28;20051;-67
2022/04/27 03:32:48;;;;;;;4.47;1.60;;;;;;;17.52;36.94;98823.28;5000884;28;20532;-68
2022/04/27 03:35:13;;;;;;;4.35;1.60;;;;;;;17.53;37.03;98833.00;5000207;28;20071;-67
2022/04/27 03:37:39;;;;;;;4.00;1.75;;;;;;;17.55;37.28;98828.22;4999441;28;20099;-66
2022/04/27 03:40:09;;;;;;;5.97;1.85;;;;;;;17.59;36.99;98824.06;5016086;28;20568;-67
2022/04/27 03:42:36;;;;;;;13.05;1.67;;;;;;;17.51;37.03;98829.72;5016659;28;20079;-67
2022/04/27 03:45:02;;;;;;;3.38;1.60;;;;;;;17.48;37.24;98832.84;5016357;28;20085;-67
2022/04/27 03:47:35;;;;;;;2.88;1.77;;;;;;;17.41;37.37;98826.66;5000478;28;20049;-72
2022/04/27 03:50:04;;;;;;;2.90;1.85;;;;;;;17.40;37.66;98828.56;5016185;28;20067;-67
2022/04/27 03:52:34;;;;;;;5.05;2.13;;;;;;;17.38;37.56;98827.94;5016579;28;20036;-67
2022/04/27 03:55:01;;;;;;;4.90;2.10;;;;;;;17.42;37.58;98833.69;4999577;28;20055;-67
2022/04/27 03:57:28;;;;;;;5.18;2.30;;;;;;;17.46;37.55;98837.59;5000234;28;20072;-67
2022/04/27 03:59:56;;;;;;;4.30;2.28;;;;;;;17.50;37.74;98839.63;5015667;28;20084;-66
2022/04/27 04:02:22;;;;;;;6.53;2.30;;;;;;;17.60;37.25;98837.28;4999994;28;20406;-67
2022/04/27 04:04:48;;;;;;;4.90;2.20;;;;;;;17.65;37.14;98841.97;5032700;28;20049;-67
2022/04/27 04:07:14;;;;;;;4.60;2.30;;;;;;;17.69;37.19;98849.34;4999368;28;20506;-68
2022/04/27 04:09:47;;;;;;;8.95;2.42;;;;;;;17.78;37.03;98837.28;5017514;28;20048;-67
2022/04/27 04:12:13;;;;;;;11.68;2.60;;;;;;;17.84;37.04;98840.91;5049673;28;20044;-67
2022/04/27 04:14:58;;;;;;;4.10;2.30;;;;;;;17.92;36.73;98846.84;5003842;28;20076;-67
2022/04/27 04:17:47;;;;;;;5.32;2.20;;;;;;;17.95;36.72;98859.00;5017827;28;20056;-67
2022/04/27 04:20:25;;;;;;;8.10;2.65;;;;;;;18.01;36.63;98855.41;5000973;28;20135;-68
2022/04/27 04:23:18;;;;;;;4.95;2.80;;;;;;;17.99;36.57;98862.88;5003155;28;20045;-67
2022/04/27 04:28:40;;;;;;;6.28;2.65;;;;;;;17.97;36.78;98859.59;5002018;28;20044;-67
2022/04/27 04:31:06;;;;;;;9.02;2.65;;;;;;;17.89;36.80;98859.88;4983087;28;20186;-67
2022/04/27 04:33:38;;;;;;;8.20;3.75;;;;;;;17.88;36.88;98864.44;5022554;28;20055;-67
2022/04/27 04:36:07;;;;;;;6.50;2.90;;;;;;;17.82;36.91;98864.53;5005502;28;20059;-68
2022/04/27 04:38:33;;;;;;;7.97;3.00;;;;;;;17.72;37.10;98846.22;5005581;28;20048;-66
2022/04/27 04:41:03;;;;;;;5.83;3.17;;;;;;;17.74;37.25;98862.13;5038207;28;20140;-67
2022/04/27 04:43:52;;;;;;;5.80;2.67;;;;;;;17.60;37.68;98849.88;5044895;28;20057;-68
2022/04/27 04:46:21;;;;;;;7.57;2.95;;;;;;;17.73;37.25;98866.66;5055771;28;20041;-79
2022/04/27 04:49:07;;;;;;;8.05;2.85;;;;;;;17.78;37.13;98866.81;5018365;28;20289;-67
2022/04/27 04:51:33;;;;;;;5.50;3.03;;;;;;;17.92;37.16;98870.19;5036351;28;20612;-67
2022/04/27 04:54:18;;;;;;;8.25;2.72;;;;;;;17.80;37.25;98858.53;5044532;28;20032;-67
2022/04/27 04:57:02;;;;;;;9.25;2.60;;;;;;;17.77;37.23;98853.63;5039077;28;20091;-66
2022/04/27 04:59:51;;;;;;;8.10;2.63;;;;;;;17.65;37.15;98837.41;5026019;28;20154;-70
2022/04/27 05:02:42;;;;;;;3.20;2.70;;;;;;;17.94;36.76;98868.09;4995016;28;20084;-67
2022/04/27 05:05:41;;;;;;;6.50;2.50;;;;;;;18.08;36.50;98866.91;5001664;28;20061;-67
2022/04/27 05:08:42;;;;;;;6.38;2.67;;;;;;;18.15;36.25;98868.47;5021712;28;20601;-70
2022/04/27 05:11:43;;;;;;;6.05;2.42;;;;;;;18.27;35.78;98877.41;5024286;28;20094;-67
2022/04/27 05:14:38;;;;;;;6.47;2.67;;;;;;;18.44;35.17;98873.09;5011141;28;20076;-70
2022/04/27 05:17:19;;;;;;;7.78;2.58;;;;;;;18.70;34.81;98871.13;5051789;28;20075;-70
2022/04/27 05:20:08;;;;;;;5.97;2.47;;;;;;;18.90;34.41;98877.84;5041807;28;20044;-71
2022/04/27 05:22:53;;;;;;;5.50;2.50;;;;;;;19.12;33.93;98884.34;5038486;28;20048;-69
2022/04/27 05:25:21;;;;;;;8.32;2.50;;;;;;;19.21;33.12;98879.44;5037468;28;20131;-69
2022/04/27 05:27:57;;;;;;;4.93;2.10;;;;;;;19.38;32.74;98883.94;5038221;28;20115;-70
2022/04/27 05:34:01;;;;;;;5.43;2.20;;;;;;;19.67;32.36;98882.19;5042287;28;20479;-69
2022/04/27 05:36:41;;;;;;;6.63;2.22;;;;;;;19.84;31.40;98880.44;5071289;28;20036;-69
2022/04/27 05:39:10;;;;;;;12.98;2.22;;;;;;;20.03;31.24;98879.25;5036880;28;20139;-70
2022/04/27 05:41:50;;;;;;;4.53;2.20;;;;;;;20.22;30.63;98877.25;5008200;28;20456;-69
2022/04/27 05:44:45;;;;;;;7.70;2.28;;;;;;;20.33;30.27;98888.00;4970812;28;20537;-71
2022/04/27 05:47:25;;;;;;;4.05;2.10;;;;;;;20.45;29.84;98893.38;5008068;28;20044;-70
2022/04/27 05:50:10;;;;;;;4.85;2.25;;;;;;;20.47;30.15;98896.66;5075840;28;20177;-69
2022/04/27 05:52:58;;;;;;;7.45;2.08;;;;;;;20.55;29.61;98893.56;5041997;28;20125;-70
2022/04/27 05:55:59;;;;;;;5.72;2.08;;;;;;;20.39;29.76;98894.34;5049984;28;20089;-70
2022/04/27 05:58:44;;;;;;;9.30;2.20;;;;;;;20.39;29.37;98903.22;5058240;28;20659;-71
2022/04/27 06:01:20;;;;;;;6.75;2.22;;;;;;;20.39;29.41;98891.66;5074024;28;20476;-68
2022/04/27 06:03:56;;;;;;;3.80;1.83;;;;;;;20.51;29.25;98905.91;5040886;28;20446;-70
2022/04/27 06:06:23;;;;;;;5.03;1.88;;;;;;;20.65;28.74;98901.88;5056837;28;20055;-72
2022/04/27 06:08:51;;;;;;;3.97;2.05;;;;;;;20.88;27.86;98907.19;5023782;28;20046;-73
2022/04/27 06:11:22;;;;;;;3.38;1.90;;;;;;;20.96;27.33;98910.34;5040043;28;20046;-71
2022/04/27 06:14:07;;;;;;;4.15;1.88;;;;;;;21.23;27.27;98905.16;5072941;28;20059;-69
2022/04/27 06:16:49;;;;;;;6.13;1.98;;;;;;;21.45;26.92;98906.06;5041596;28;20066;-71
2022/04/27 06:19:17;;;;;;;4.63;2.10;;;;;;;21.71;26.59;98917.03;5040095;28;20104;-70
2022/04/27 06:21:43;;;;;;;5.25;2.40;;;;;;;21.96;26.16;98919.31;5040055;28;20071;-70
2022/04/27 06:24:09;;;;;;;10.90;1.98;;;;;;;22.12;25.57;98904.97;5056330;28;20052;-69
2022/04/27 06:26:37;;;;;;;7.25;1.98;;;;;;;22.41;25.12;98922.66;5056683;28;20385;-69
2022/04/27 06:29:03;;;;;;;5.53;2.40;;;;;;;22.54;24.93;98924.22;5056150;28;20040;-70
2022/04/27 06:31:31;;;;;;;4.35;2.20;;;;;;;22.66;24.47;98923.03;5056216;28;20043;-70
2022/04/27 06:33:59;;;;;;;4.78;2.25;;;;;;;22.76;24.32;98923.13;5056703;28;20044;-71
2022/04/27 06:36:25;;;;;;;4.28;2.35;;;;;;;22.91;24.65;98928.72;5039494;28;20062;-70
2022/04/27 06:38:52;;;;;;;11.35;2.40;;;;;;;23.04;24.44;98920.19;5039936;28;20044;-71
2022/04/27 06:41:27;;;;;;;9.43;2.22;;;;;;;23.18;23.55;98921.41;5056848;28;20079;-70
2022/04/27 06:44:19;;;;;;;3.05;2.10;;;;;;;23.50;22.31;98917.91;5047906;28;20494;-70
2022/04/27 06:47:14;;;;;;;4.25;1.77;;;;;;;23.61;22.04;98908.81;5030684;28;20052;-73
2022/04/27 06:49:58;;;;;;;8.30;1.95;;;;;;;23.78;21.37;98925.75;5061118;28;20096;-71
2022/04/27 06:53:02;;;;;;;4.05;1.85;;;;;;;23.85;21.01;98907.38;5028552;28;20119;-70
2022/04/27 06:55:49;;;;;;;6.32;2.17;;;;;;;24.06;20.62;98923.56;5014523;28;20045;-69
2022/04/27 06:58:47;;;;;;;4.95;2.50;;;;;;;24.01;19.97;98914.53;5046116;28;20048;-70
2022/04/27 07:01:19;;;;;;;7.47;2.10;;;;;;;23.96;20.48;98919.94;5054851;28;20036;-70
2022/04/27 07:03:45;;;;;;;7.82;2.10;;;;;;;23.98;20.32;98905.03;5070198;28;20493;-70
2022/04/27 07:06:12;;;;;;;4.00;1.85;;;;;;;24.44;19.76;98927.81;5070378;28;20036;-70
2022/04/27 07:08:37;;;;;;;4.47;1.60;;;;;;;24.57;19.15;98908.34;5070089;28;20472;-70
2022/04/27 07:11:03;;;;;;;3.20;2.15;;;;;;;25.11;18.47;98919.66;5088351;28;20068;-71
2022/04/27 07:13:29;;;;;;;8.55;1.67;;;;;;;25.70;17.93;98916.19;5087976;28;20048;-70
2022/04/27 07:16:00;;;;;;;10.88;2.20;;;;;;;26.18;17.59;98914.78;5089434;28;20044;-70
2022/04/27 07:18:29;;;;;;;9.02;2.20;;;;;;;26.67;16.64;98918.47;5090478;28;20494;-70
2022/04/27 07:20:55;;;;;;;10.10;2.20;;;;;;;28.01;15.52;98928.75;5055434;28;20047;-70
2022/04/27 07:23:21;;;;;;;5.70;2.08;;;;;;;29.94;14.25;98930.28;5091150;28;20036;-71
2022/04/27 07:25:47;;;;;;;3.78;1.90;;;;;;;32.26;12.53;98926.81;5090913;28;20101;-70
2022/04/27 07:28:13;;;;;;;11.70;2.13;;;;;;;34.49;10.75;98934.13;5090472;28;20508;-71
2022/04/27 07:30:38;;;;;;;4.50;1.73;;;;;;;35.98;9.05;98934.91;5071128;28;20042;-70
2022/04/27 07:33:04;;;;;;;10.18;2.47;;;;;;;37.31;8.66;98935.81;5071147;28;20043;-71
2022/04/27 07:35:30;;;;;;;8.85;2.05;;;;;;;38.22;7.61;98941.25;5089593;28;20476;-72
2022/04/27 07:37:56;;;;;;;5.10;2.00;;;;;;;39.44;7.04;98939.09;5071750;28;20515;-72
2022/04/27 07:40:31;;;;;;;6.68;2.55;;;;;;;40.65;6.29;98941.88;5057417;28;20044;-72
2022/04/27 07:42:58;;;;;;;6.00;2.30;;;;;;;40.78;6.40;98948.06;5038194;28;20083;-71
2022/04/27 07:45:24;;;;;;;4.82;2.20;;;;;;;41.37;5.95;98950.97;5055359;28;20044;-71
2022/04/27 07:47:49;;;;;;;6.30;1.92;;;;;;;41.13;6.05;98946.66;5089751;28;20040;-72
2022/04/27 07:50:16;;;;;;;6.30;1.80;;;;;;;39.41;7.03;98937.03;5071124;28;20109;-72
2022/04/27 07:52:43;;;;;;;6.18;2.00;;;;;;;37.00;7.96;98938.38;5089572;28;20040;-71
2022/04/27 07:55:09;;;;;;;12.05;2.30;;;;;;;34.89;9.27;98922.41;5071503;28;20519;-70
2022/04/27 07:57:37;;;;;;;7.20;2.30;;;;;;;33.13;10.41;98929.56;5054951;28;20044;-71
2022/04/27 08:00:06;;;;;;;14.45;2.45;;;;;;;31.65;12.04;98916.56;5054882;28;20106;-71
2022/04/27 08:02:41;;;;;;;13.02;2.30;;;;;;;30.60;12.73;98918.94;5085739;28;20081;-70
2022/04/27 08:05:07;;;;;;;8.77;2.85;;;;;;;29.88;12.90;98925.19;5018429;28;20523;-71
2022/04/27 08:07:35;;;;;;;7.20;2.17;;;;;;;29.24;13.36;98923.19;5068728;28;20439;-71
2022/04/27 08:10:08;;;;;;;6.93;2.30;;;;;;;28.50;14.03;98934.81;5036370;28;20090;-70
2022/04/27 08:12:34;;;;;;;14.77;2.67;;;;;;;27.85;15.65;98925.31;5071954;28;20035;-70
2022/04/27 08:15:00;;;;;;;5.05;2.13;;;;;;;27.91;15.18;98924.19;5038419;28;20036;-71
2022/04/27 08:17:25;;;;;;;7.53;3.00;;;;;;;27.90;14.64;98894.47;5073497;28;20064;-71
2022/04/27 08:21:13;;;;;;;11.85;2.38;;;;;;;27.97;14.57;98922.22;5054857;28;20082;-73
2022/04/27 08:22:37;;;;;;;6.28;1.90;;;;;;;27.49;14.95;98921.25;5073010;28;20076;-71
2022/04/27 08:25:03;;;;;;;10.18;2.30;;;;;;;26.86;15.15;98919.47;5039122;28;20087;-71
2022/04/27 08:27:29;;;;;;;10.45;2.15;;;;;;;26.45;15.55;98918.78;5055448;28;20072;-71
2022/04/27 08:29:54;;;;;;;7.38;2.10;;;;;;;25.89;15.90;98903.66;5038617;28;20060;-70
2022/04/27 08:32:20;;;;;;;10.73;2.60;;;;;;;25.66;16.57;98912.38;5038372;28;20048;-70
2022/04/27 08:34:49;;;;;;;6.75;2.40;;;;;;;25.58;17.19;98921.09;5038608;28;20044;-72
2022/04/27 08:37:14;;;;;;;8.98;2.30;;;;;;;25.49;16.99;98914.56;5055434;28;20047;-71
2022/04/27 08:39:42;;;;;;;6.57;2.55;;;;;;;25.54;17.26;98905.59;5038681;28;20052;-71
2022/04/27 08:42:09;;;;;;;7.32;2.30;;;;;;;25.66;17.09;98919.75;5072456;28;20044;-72
2022/04/27 08:44:38;;;;;;;5.40;2.30;;;;;;;25.91;17.28;98914.25;5038797;28;20040;-70
2022/04/27 08:47:09;;;;;;;11.05;2.90;;;;;;;25.96;17.28;98916.97;5073423;28;20151;-70
2022/04/27 08:49:34;;;;;;;;;;;;;;;26.09;17.00;98914.53;5056041;28;20036;-70
2022/04/27 08:52:06;;;;;;;9.43;2.90;;;;;;;26.02;17.38;98919.44;5038237;28;19927;-69
2022/04/27 08:54:33;;;;;;;7.88;2.42;;;;;;;25.84;17.36;98922.72;5054871;28;20040;-70
2022/04/27 08:56:59;;;;;;;11.88;2.35;;;;;;;25.61;17.19;98917.84;5021726;28;20033;-70
2022/04/27 08:59:25;;;;;;;7.20;2.72;;;;;;;25.46;17.41;98917.00;5037936;28;20048;-70
2022/04/27 09:01:51;;;;;;;11.93;2.70;;;;;;;25.07;17.51;98881.34;5054488;28;20055;-70
2022/04/27 09:04:18;;;;;;;9.23;2.70;;;;;;;25.05;17.67;98918.81;5038342;28;20041;-70
2022/04/27 09:06:46;;;;;;;9.77;2.33;;;;;;;24.91;17.78;98920.41;5072324;28;20683;-71
2022/04/27 09:09:32;;;;;;;9.07;2.75;;;;;;;24.95;17.50;98880.78;5055114;28;20044;-70
2022/04/27 09:11:58;;;;;;;3.92;2.47;;;;;;;25.06;17.27;98920.47;5053485;28;20067;-71
2022/04/27 09:14:36;;;;;;;3.85;2.38;;;;;;;25.13;17.21;98907.44;5038047;28;20507;-71
2022/04/27 09:22:44;;;;;;;18.10;3.10;;;;;;;24.65;18.23;98933.09;5056703;28;20044;-70
2022/04/27 09:25:10;;;;;;;11.80;2.72;;;;;;;24.24;18.43;98898.69;5054444;28;20047;-71
2022/04/27 09:27:36;;;;;;;8.73;2.80;;;;;;;24.14;18.17;98925.75;5038097;28;20093;-70
2022/04/27 09:30:04;;;;;;;10.30;2.45;;;;;;;23.95;18.61;98931.84;5021144;28;20052;-70
2022/04/27 09:32:30;;;;;;;7.68;2.10;;;;;;;23.52;18.72;98903.06;5037508;28;20049;-71
2022/04/27 09:34:57;;;;;;;10.95;2.30;;;;;;;23.31;19.21;98913.97;5037301;28;20047;-70
2022/04/27 09:37:30;;;;;;;14.23;2.10;;;;;;;23.20;19.67;98930.09;5054315;28;20040;-70
2022/04/27 09:40:08;;;;;;;11.10;2.10;;;;;;;22.98;20.09;98915.81;5053971;28;20491;-71
2022/04/27 09:42:38;;;;;;;9.75;2.10;;;;;;;22.80;20.21;98931.56;5037038;28;20050;-70
2022/04/27 09:45:19;;;;;;;;;;;;;;;22.73;20.69;98944.47;5037857;28;20135;-70
2022/04/27 09:47:47;;;;;;;;;;;;;;;22.41;20.91;98947.03;5072298;28;19920;-71
2022/04/27 09:50:12;;;;;;;5.72;2.08;;;;;;;21.93;21.44;98954.97;5037398;28;19970;-70
2022/04/27 09:52:39;;;;;;;12.63;2.50;;;;;;;21.66;21.87;98943.16;5053264;28;20044;-70
2022/04/27 09:55:07;;;;;;;11.15;2.45;;;;;;;21.72;22.18;98963.81;5037462;28;20041;-70
2022/04/27 09:57:35;;;;;;;9.18;2.65;;;;;;;21.69;22.82;98970.50;5037139;28;20044;-70
2022/04/27 10:00:02;;;;;;;8.85;3.08;;;;;;;21.47;23.41;98969.59;5037138;28;20052;-70
2022/04/27 10:02:38;;;;;;;13.40;2.50;;;;;;;21.32;23.76;98957.72;5038064;28;20039;-69
2022/04/27 10:05:05;;;;;;;7.20;3.03;;;;;;;21.30;24.11;98973.34;5020272;28;20504;-70
2022/04/27 10:07:32;;;;;;;6.90;2.60;;;;;;;21.17;24.04;98957.44;5037062;28;20047;-69
2022/04/27 10:10:00;;;;;;;4.85;2.65;;;;;;;21.17;24.28;98981.75;5070948;28;20127;-69
2022/04/27 10:12:40;;;;;;;6.43;2.45;;;;;;;21.24;24.29;98993.22;5052265;28;20040;-70
2022/04/27 10:15:06;;;;;;;9.90;2.83;;;;;;;21.04;24.62;98987.44;5032763;28;20056;-70
2022/04/27 10:17:33;;;;;;;15.23;3.17;;;;;;;20.97;24.74;98992.97;5032907;28;20041;-70
2022/04/27 10:19:59;;;;;;;16.92;2.75;;;;;;;20.84;24.60;98998.63;5032845;28;20106;-70
2022/04/27 10:22:27;;;;;;;12.73;2.53;;;;;;;20.88;24.72;99004.38;5016091;28;20431;-71
2022/04/27 10:24:55;;;;;;;12.05;2.92;;;;;;;20.88;25.07;99017.88;5050432;28;20053;-72
2022/04/27 10:27:26;;;;;;;6.97;2.33;;;;;;;20.52;24.72;99010.88;5033328;28;20131;-73
2022/04/27 10:29:58;;;;;;;6.85;2.40;;;;;;;20.60;24.86;99015.09;5035742;28;20048;-73
2022/04/27 10:32:38;;;;;;;4.47;2.33;;;;;;;20.46;24.61;98998.34;4999368;28;20106;-72
2022/04/27 10:35:17;;;;;;;3.40;2.05;;;;;;;20.56;24.49;98993.16;4999522;28;20041;-73
2022/04/27 10:37:52;;;;;;;6.72;2.20;;;;;;;20.69;24.49;99011.81;5032908;28;20551;-73
2022/04/27 10:40:29;;;;;;;8.15;2.10;;;;;;;20.84;24.17;99024.78;5016185;28;20041;-72
2022/04/27 10:42:58;;;;;;;4.80;2.42;;;;;;;20.75;24.16;99020.81;5032259;28;20507;-72
2022/04/27 10:45:27;;;;;;;4.00;2.30;;;;;;;20.92;24.11;99024.41;5032676;28;20139;-71
2022/04/27 10:47:53;;;;;;;7.10;1.98;;;;;;;20.94;24.09;99017.72;5031991;28;20052;-71
2022/04/27 10:50:21;;;;;;;3.35;1.85;;;;;;;21.07;24.07;99024.75;4999564;28;20041;-74
2022/04/27 10:52:51;;;;;;;6.18;1.85;;;;;;;21.12;24.15;99024.84;5015645;28;20217;-69
2022/04/27 10:55:35;;;;;;;7.45;2.55;;;;;;;21.33;24.10;99024.16;5032528;28;20045;-70
2022/04/27 10:58:33;;;;;;;7.10;2.55;;;;;;;21.44;24.33;99024.13;5014615;28;20735;-70
2022/04/27 11:00:58;;;;;;;7.95;2.70;;;;;;;21.38;24.44;99032.38;4997357;28;20045;-71
2022/04/27 11:03:25;;;;;;;7.00;2.28;;;;;;;21.61;24.57;99027.69;5029304;28;20115;-71
2022/04/27 11:05:57;;;;;;;13.43;2.40;;;;;;;22.10;23.95;99036.09;5029886;28;20041;-70
2022/04/27 11:08:28;;;;;;;7.47;1.95;;;;;;;22.42;23.28;99039.84;4996928;28;20390;-72
2022/04/27 11:11:03;;;;;;;2.10;1.58;;;;;;;22.92;22.50;99033.28;5014185;28;20049;-70
2022/04/27 11:13:33;;;;;;;3.22;1.52;;;;;;;22.96;21.99;99020.03;5014058;28;20465;-70
2022/04/27 11:16:12;;;;;;;4.25;1.75;;;;;;;23.02;21.85;99019.84;5031657;28;20053;-70
2022/04/27 11:18:49;;;;;;;4.20;1.90;;;;;;;23.21;21.88;99039.28;5049369;28;20132;-70
2022/04/27 11:21:17;;;;;;;6.30;1.70;;;;;;;23.10;21.92;99038.38;5031310;28;20428;-69
2022/04/27 11:23:43;;;;;;;6.68;1.50;;;;;;;22.94;22.04;99041.94;5014509;28;20501;-70
2022/04/27 11:26:09;;;;;;;2.67;1.70;;;;;;;22.62;22.64;99035.56;5031585;28;20052;-70
2022/04/27 11:28:39;;;;;;;6.47;1.92;;;;;;;22.57;23.05;99031.97;4999243;28;20045;-71
2022/04/27 11:31:05;;;;;;;3.00;2.03;;;;;;;22.16;23.60;99035.94;4999017;28;20053;-71
2022/04/27 11:33:31;;;;;;;3.45;2.40;;;;;;;22.09;23.28;98993.88;5024905;28;20500;-70
2022/04/27 11:35:57;;;;;;;3.13;1.88;;;;;;;22.00;23.80;99038.66;5034493;28;20038;-70
2022/04/27 11:38:33;;;;;;;4.95;2.10;;;;;;;22.09;24.10;99043.41;5001411;28;20087;-71
2022/04/27 11:40:59;;;;;;;5.65;2.17;;;;;;;21.75;23.80;99041.75;5033842;28;20044;-70
2022/04/27 11:43:27;;;;;;;5.70;2.20;;;;;;;21.55;24.13;99042.19;5050748;28;20044;-70
2022/04/27 11:45:54;;;;;;;7.13;2.10;;;;;;;21.36;24.22;99045.31;5068461;28;20070;-71
2022/04/27 11:48:22;;;;;;;19.67;2.78;;;;;;;20.90;25.00;99078.66;5051060;28;20504;-73
2022/04/27 11:50:48;;;;;;;26.63;3.45;;;;;;;20.58;25.79;99081.97;5018316;28;20182;-69
2022/04/27 11:53:14;;;;;;;35.00;2.60;;;;;;;20.33;26.82;99076.00;5051307;28;20588;-68
2022/04/27 11:55:40;;;;;;;15.52;1.40;;;;;;;20.32;27.43;99090.53;5034605;28;20119;-69
2022/04/27 11:58:07;;;;;;;15.23;1.88;;;;;;;19.99;28.05;99069.47;5050832;28;20050;-71
2022/04/27 12:00:34;;;;;;;9.40;1.42;;;;;;;20.06;28.74;99107.94;5050875;28;20481;-71
2022/04/27 12:03:04;;;;;;;8.23;2.33;;;;;;;19.84;29.54;99096.88;5034406;28;20129;-69
2022/04/27 12:05:34;;;;;;;12.45;1.58;;;;;;;19.67;30.19;99125.50;5050515;28;20408;-69
2022/04/27 12:08:02;;;;;;;7.95;1.65;;;;;;;19.37;30.96;99113.88;5017765;28;20044;-69